Time;durP1;ratioP1;P1;durP2;ratioP2;P2;SDS_P1;SDS_P2;PMS_P1;PMS_P2;Temp;Humidity;BMP_temperature;BMP_pressure;BME280_temperature;BME280_humidity;BME280_pressure;Samples;Min_cycle;Max_cycle;Signal;HPM_P1;HPM_P2
2022/01/27 00:00:43;;;;;;;23.77;13.57;;;2.90;99.90;;;;;;5116105;28;20368;-67
2022/01/27 00:05:50;;;;;;;25.95;14.80;;;2.80;99.90;;;;;;5116196;28;20032;-66
2022/01/27 00:08:20;;;;;;;24.63;13.07;;;2.90;99.90;;;;;;5113953;28;20465;-68
2022/01/27 00:13:14;;;;;;;23.70;12.57;;;2.80;99.90;;;;;;5115347;28;20181;-66
2022/01/27 00:15:47;;;;;;;21.50;11.48;;;2.70;99.90;;;;;;5114479;28;20111;-65
2022/01/27 00:18:16;;;;;;;25.35;13.20;;;2.70;99.90;;;;;;5114302;28;20084;-66
2022/01/27 00:20:42;;;;;;;24.20;12.82;;;2.90;99.90;;;;;;5115854;28;20069;-67
2022/01/27 00:23:08;;;;;;;23.30;13.10;;;2.80;99.90;;;;;;5116950;28;20061;-69
2022/01/27 00:25:34;;;;;;;21.25;12.07;;;2.70;99.90;;;;;;5115755;28;20417;-67
2022/01/27 00:28:00;;;;;;;25.45;13.52;;;2.70;99.90;;;;;;5114764;28;20032;-67
2022/01/27 00:30:26;;;;;;;25.75;13.73;;;2.70;99.90;;;;;;5115067;28;20276;-66
2022/01/27 00:32:52;;;;;;;26.38;14.25;;;2.60;99.90;;;;;;5114962;27;20070;-66
2022/01/27 00:35:18;;;;;;;23.38;12.85;;;2.50;99.90;;;;;;5113713;28;20118;-66
2022/01/27 00:37:43;;;;;;;27.27;13.93;;;2.50;99.90;;;;;;5114569;28;20529;-67
2022/01/27 00:40:12;;;;;;;23.58;14.50;;;2.40;99.90;;;;;;5113691;28;20492;-67
2022/01/27 00:42:42;;;;;;;27.88;14.85;;;2.30;99.90;;;;;;5114991;28;20090;-67
2022/01/27 00:45:08;;;;;;;24.45;13.20;;;2.40;99.90;;;;;;5114785;28;20517;-69
2022/01/27 00:47:34;;;;;;;26.90;14.32;;;2.50;99.90;;;;;;5115020;28;20023;-66
2022/01/27 00:50:00;;;;;;;23.65;12.07;;;2.40;99.90;;;;;;5115555;28;20118;-67
2022/01/27 00:52:34;;;;;;;23.92;13.63;;;2.40;99.90;;;;;;5113538;28;20052;-67
2022/01/27 00:54:59;;;;;;;23.00;12.60;;;2.40;99.90;;;;;;5114042;28;20020;-67
2022/01/27 00:57:41;;;;;;;25.88;14.38;;;2.50;99.90;;;;;;5114389;28;20373;-66
2022/01/27 01:00:09;;;;;;;23.98;12.13;;;2.60;99.90;;;;;;5115094;28;20123;-66
2022/01/27 01:02:50;;;;;;;25.38;14.05;;;2.60;99.90;;;;;;5114154;28;20042;-66
2022/01/27 01:08:30;;;;;;;23.20;13.80;;;2.60;99.90;;;;;;5116544;28;20027;-68
2022/01/27 01:16:12;;;;;;;23.48;13.55;;;2.70;99.90;;;;;;5114474;28;20031;-69
2022/01/27 01:36:49;;;;;;;29.92;14.75;;;2.60;99.90;;;;;;5114678;28;20024;-68
2022/01/27 01:39:15;;;;;;;27.27;13.93;;;2.60;99.90;;;;;;5112639;28;20389;-66
2022/01/27 01:41:42;;;;;;;29.30;15.38;;;2.50;99.90;;;;;;5113198;28;20034;-68
2022/01/27 01:44:09;;;;;;;24.65;14.18;;;2.60;99.90;;;;;;5113152;28;20031;-66
2022/01/27 01:46:36;;;;;;;27.67;14.65;;;2.60;99.90;;;;;;5113851;28;20481;-68
2022/01/27 01:49:05;;;;;;;27.52;14.18;;;2.50;99.90;;;;;;5128085;27;20118;-68
2022/01/27 01:51:33;;;;;;;25.73;13.35;;;2.50;99.90;;;;;;5134340;27;20272;-67
2022/01/27 01:53:59;;;;;;;27.95;15.77;;;2.60;99.90;;;;;;5134805;27;20500;-64
2022/01/27 01:56:26;;;;;;;26.77;13.23;;;2.50;99.90;;;;;;5134632;27;20023;-67
2022/01/27 01:58:51;;;;;;;28.75;14.02;;;2.50;99.90;;;;;;5135280;27;20027;-67
2022/01/27 02:01:18;;;;;;;25.17;13.43;;;2.50;99.90;;;;;;5134368;27;20453;-66
2022/01/27 02:03:45;;;;;;;30.85;13.75;;;2.50;99.90;;;;;;5134559;27;20179;-66
2022/01/27 02:06:31;;;;;;;27.15;14.60;;;2.50;99.90;;;;;;5134942;27;20076;-65
2022/01/27 02:19:43;;;;;;;28.63;15.18;;;2.20;99.90;;;;;;5135175;27;20070;-67
2022/01/27 02:22:09;;;;;;;28.52;14.75;;;2.20;99.90;;;;;;5135360;27;20023;-64
2022/01/27 02:24:36;;;;;;;29.00;15.88;;;2.20;99.90;;;;;;5135734;27;20088;-65
2022/01/27 02:27:03;;;;;;;30.30;14.32;;;2.20;99.90;;;;;;5134477;27;20043;-68
2022/01/27 02:29:30;;;;;;;28.23;14.75;;;2.30;99.90;;;;;;5134101;27;20047;-66
2022/01/27 02:31:58;;;;;;;36.88;16.52;;;2.10;99.90;;;;;;5132970;27;20042;-63
2022/01/27 02:34:25;;;;;;;32.85;15.52;;;2.10;99.90;;;;;;5115619;27;20052;-66
2022/01/27 02:36:51;;;;;;;31.17;15.32;;;2.10;99.90;;;;;;5134504;27;20118;-68
2022/01/27 02:39:19;;;;;;;29.52;14.60;;;2.10;99.90;;;;;;5134037;27;20042;-65
2022/01/27 02:41:45;;;;;;;28.60;14.68;;;1.90;99.90;;;;;;5134704;27;20057;-66
2022/01/27 02:44:40;;;;;;;27.73;15.35;;;1.80;99.90;;;;;;5133180;28;20058;-69
2022/01/27 02:47:06;;;;;;;32.70;15.55;;;1.90;99.90;;;;;;5120017;28;20063;-66
2022/01/27 02:49:32;;;;;;;36.28;16.80;;;2.00;99.90;;;;;;5134941;28;20403;-67
2022/01/27 02:51:58;;;;;;;30.30;14.73;;;2.10;99.90;;;;;;5135462;27;20102;-66
2022/01/27 02:54:24;;;;;;;27.45;14.73;;;2.20;99.90;;;;;;5135232;28;20495;-66
2022/01/27 02:56:49;;;;;;;30.75;16.17;;;2.30;99.90;;;;;;5142341;27;20026;-67
2022/01/27 02:59:17;;;;;;;25.02;14.40;;;2.30;99.90;;;;;;5143899;27;20091;-67
2022/01/27 03:01:48;;;;;;;28.40;16.30;;;2.20;99.90;;;;;;5139822;27;20026;-67
2022/01/27 03:04:15;;;;;;;27.45;14.02;;;2.20;99.90;;;;;;5139349;27;20031;-67
2022/01/27 03:06:42;;;;;;;33.67;17.13;;;2.30;99.90;;;;;;5139026;27;20469;-67
2022/01/27 03:09:08;;;;;;;28.15;14.80;;;2.30;99.90;;;;;;5139988;27;20027;-68
2022/01/27 03:11:45;;;;;;;33.97;16.05;;;2.30;99.90;;;;;;5139059;27;20046;-66
2022/01/27 03:14:14;;;;;;;29.27;16.50;;;2.20;99.90;;;;;;5138959;27;20487;-66
2022/01/27 03:16:41;;;;;;;35.22;16.38;;;2.40;99.90;;;;;;5119265;27;20059;-66
2022/01/27 03:19:07;;;;;;;27.55;15.57;;;2.40;99.90;;;;;;5137542;27;20150;-68
2022/01/27 03:21:34;;;;;;;28.05;15.40;;;2.30;99.90;;;;;;5137203;27;20023;-67
2022/01/27 03:23:59;;;;;;;29.55;16.48;;;2.30;99.90;;;;;;5139302;27;20028;-68
2022/01/27 03:26:26;;;;;;;29.95;15.90;;;2.20;99.90;;;;;;5140825;27;20189;-67
2022/01/27 03:28:51;;;;;;;30.45;16.60;;;2.30;99.90;;;;;;5141839;27;20027;-67
2022/01/27 03:31:17;;;;;;;26.23;14.63;;;2.30;99.90;;;;;;5139933;27;20115;-68
2022/01/27 03:33:43;;;;;;;29.35;14.98;;;2.30;99.90;;;;;;5137506;27;20037;-66
2022/01/27 03:36:10;;;;;;;34.10;17.20;;;2.30;99.90;;;;;;5138543;27;20026;-66
2022/01/27 03:38:36;;;;;;;32.80;16.67;;;2.20;99.90;;;;;;5137780;27;20084;-67
2022/01/27 03:41:08;;;;;;;33.20;15.60;;;2.10;99.90;;;;;;5137154;27;20027;-66
2022/01/27 03:43:35;;;;;;;33.38;16.35;;;2.00;99.90;;;;;;5135544;27;20035;-66
2022/01/27 03:46:01;;;;;;;35.88;19.02;;;2.00;99.90;;;;;;5136716;27;20058;-66
2022/01/27 03:48:27;;;;;;;31.45;16.08;;;2.10;99.90;;;;;;5137480;27;20051;-65
2022/01/27 03:50:53;;;;;;;35.60;16.98;;;2.00;99.90;;;;;;5137344;27;20037;-66
2022/01/27 03:53:19;;;;;;;35.95;16.83;;;1.90;99.90;;;;;;5137859;27;20117;-68
2022/01/27 03:55:45;;;;;;;34.13;18.55;;;2.00;99.90;;;;;;5139183;27;20027;-66
2022/01/27 03:58:11;;;;;;;36.22;16.92;;;1.90;99.90;;;;;;5137627;27;20441;-69
2022/01/27 04:00:37;;;;;;;32.53;16.45;;;2.00;99.90;;;;;;5135800;27;20541;-68
2022/01/27 04:03:07;;;;;;;38.70;17.65;;;2.00;99.90;;;;;;5138621;27;20038;-68
2022/01/27 04:05:37;;;;;;;31.67;16.23;;;2.10;99.90;;;;;;5140185;27;20058;-68
2022/01/27 04:08:04;;;;;;;31.55;16.38;;;2.10;99.90;;;;;;5139046;27;20035;-67
2022/01/27 04:10:30;;;;;;;34.65;17.08;;;2.20;99.90;;;;;;5120675;27;20361;-68
2022/01/27 04:12:56;;;;;;;29.67;16.70;;;2.30;99.90;;;;;;5138120;27;20041;-68
2022/01/27 04:15:22;;;;;;;34.13;18.08;;;2.20;99.90;;;;;;5135595;27;20488;-66
2022/01/27 04:17:48;;;;;;;38.13;18.13;;;2.30;99.90;;;;;;5138970;27;20032;-68
2022/01/27 04:20:13;;;;;;;32.38;17.25;;;2.30;99.90;;;;;;5137860;27;20023;-66
2022/01/27 04:22:39;;;;;;;34.45;17.35;;;2.30;99.90;;;;;;5137536;27;20428;-66
2022/01/27 04:25:06;;;;;;;38.88;16.70;;;2.30;99.90;;;;;;5137210;27;20480;-64
2022/01/27 04:27:35;;;;;;;29.40;15.27;;;2.40;99.90;;;;;;5136406;27;20047;-70
2022/01/27 04:30:04;;;;;;;39.40;18.80;;;2.30;99.90;;;;;;5137502;27;20385;-66
2022/01/27 04:32:36;;;;;;;30.42;16.73;;;2.20;99.90;;;;;;5136060;27;20023;-67
2022/01/27 04:35:05;;;;;;;31.63;15.93;;;2.20;99.90;;;;;;5138579;27;20016;-67
2022/01/27 04:37:35;;;;;;;38.60;19.58;;;2.30;99.90;;;;;;5137088;27;20414;-67
2022/01/27 04:40:13;;;;;;;32.33;16.20;;;2.20;99.90;;;;;;5135628;27;20034;-67
2022/01/27 04:42:53;;;;;;;33.25;16.50;;;2.20;99.90;;;;;;5134782;27;20131;-67
2022/01/27 04:45:27;;;;;;;31.75;16.50;;;2.20;99.90;;;;;;5135769;27;20103;-67
2022/01/27 04:48:02;;;;;;;32.17;16.40;;;2.20;99.90;;;;;;5137148;27;20120;-66
2022/01/27 04:50:28;;;;;;;35.72;16.33;;;2.30;99.90;;;;;;5134312;27;20068;-66
2022/01/27 04:52:56;;;;;;;30.17;16.65;;;2.30;99.90;;;;;;5136253;27;20031;-68
2022/01/27 04:55:23;;;;;;;36.65;17.55;;;2.40;99.90;;;;;;5135229;27;20019;-66
2022/01/27 04:57:56;;;;;;;33.35;15.98;;;2.30;99.90;;;;;;5137046;27;20098;-66
2022/01/27 05:00:22;;;;;;;33.40;15.32;;;2.30;99.90;;;;;;5136718;27;20047;-67
2022/01/27 05:02:55;;;;;;;34.63;17.23;;;2.30;99.90;;;;;;5136423;27;20415;-67
2022/01/27 05:05:22;;;;;;;31.55;16.73;;;2.40;99.90;;;;;;5136820;27;20317;-68
2022/01/27 05:07:55;;;;;;;27.42;14.55;;;2.40;99.90;;;;;;5139506;27;20067;-67
2022/01/27 05:10:24;;;;;;;28.27;14.02;;;2.50;99.90;;;;;;5139263;27;20390;-68
2022/01/27 05:12:53;;;;;;;27.80;15.18;;;2.40;99.90;;;;;;5137581;27;20027;-67
2022/01/27 05:15:18;;;;;;;28.65;14.73;;;2.40;99.90;;;;;;5136947;27;20030;-68
2022/01/27 05:17:44;;;;;;;36.85;15.50;;;2.40;99.90;;;;;;5135700;27;20031;-67
2022/01/27 05:20:10;;;;;;;33.13;14.20;;;2.30;99.90;;;;;;5136025;27;20027;-68
2022/01/27 05:22:36;;;;;;;32.72;15.82;;;2.00;99.90;;;;;;5135694;27;20023;-68
2022/01/27 05:25:03;;;;;;;30.80;14.00;;;2.00;99.90;;;;;;5135232;27;20076;-67
2022/01/27 05:27:28;;;;;;;30.38;15.43;;;2.10;99.90;;;;;;5134625;27;20123;-68
2022/01/27 05:29:54;;;;;;;31.38;15.13;;;2.10;99.90;;;;;;5136002;27;20443;-67
2022/01/27 05:32:20;;;;;;;29.52;15.60;;;2.20;99.90;;;;;;5134946;27;20076;-66
2022/01/27 05:34:47;;;;;;;29.80;15.38;;;2.10;99.90;;;;;;5135807;27;20050;-67
2022/01/27 05:37:13;;;;;;;29.15;15.25;;;2.10;99.90;;;;;;5136410;27;20027;-67
2022/01/27 05:39:39;;;;;;;30.40;15.32;;;2.10;99.90;;;;;;5135082;27;20027;-67
2022/01/27 05:42:05;;;;;;;30.27;15.10;;;2.20;99.90;;;;;;5134522;27;20106;-67
2022/01/27 05:44:31;;;;;;;32.17;15.60;;;2.20;99.90;;;;;;5134103;27;20031;-67
2022/01/27 05:46:57;;;;;;;30.13;14.35;;;2.20;99.90;;;;;;5134485;27;20118;-66
2022/01/27 05:49:23;;;;;;;26.42;13.73;;;2.30;99.90;;;;;;5134834;27;20525;-67
2022/01/27 05:51:49;;;;;;;27.77;14.27;;;2.30;99.90;;;;;;5136859;27;20045;-67
2022/01/27 05:54:14;;;;;;;31.67;15.45;;;2.30;99.90;;;;;;5137007;27;20035;-68
2022/01/27 05:56:40;;;;;;;29.50;14.82;;;2.30;99.90;;;;;;5134458;27;20079;-67
2022/01/27 05:59:06;;;;;;;29.13;15.15;;;2.30;99.90;;;;;;5133749;27;20035;-67
2022/01/27 06:01:31;;;;;;;29.50;14.70;;;2.30;99.90;;;;;;5133667;27;20027;-68
2022/01/27 06:03:57;;;;;;;30.67;16.17;;;2.30;99.90;;;;;;5134220;27;20039;-66
2022/01/27 06:06:23;;;;;;;31.00;15.13;;;2.30;99.90;;;;;;5134488;27;20050;-67
2022/01/27 06:08:48;;;;;;;28.40;14.35;;;2.40;99.90;;;;;;5132526;27;20023;-67
2022/01/27 06:11:14;;;;;;;30.17;15.18;;;2.30;99.90;;;;;;5134286;27;20090;-67
2022/01/27 06:13:40;;;;;;;30.73;14.55;;;2.40;99.90;;;;;;5133440;27;20060;-67
2022/01/27 06:16:10;;;;;;;31.55;14.98;;;2.40;99.90;;;;;;5133963;27;20027;-66
2022/01/27 06:18:39;;;;;;;29.45;15.18;;;2.50;99.90;;;;;;5133840;27;20027;-68
2022/01/27 06:21:06;;;;;;;30.40;14.40;;;2.40;99.90;;;;;;5132838;27;20118;-66
2022/01/27 06:23:32;;;;;;;26.33;13.50;;;2.40;99.90;;;;;;5133186;27;20074;-68
2022/01/27 06:25:59;;;;;;;33.53;14.38;;;2.50;99.90;;;;;;5132567;27;20440;-68
2022/01/27 06:28:25;;;;;;;23.58;13.10;;;2.50;99.90;;;;;;5134200;27;20058;-67
2022/01/27 06:30:51;;;;;;;28.63;13.02;;;2.50;99.90;;;;;;5133122;27;20125;-68
2022/01/27 06:33:16;;;;;;;23.48;12.35;;;2.50;99.90;;;;;;5133173;27;20031;-69
2022/01/27 06:35:42;;;;;;;30.25;13.15;;;2.50;99.90;;;;;;5133917;27;20065;-67
2022/01/27 06:38:08;;;;;;;28.33;12.65;;;2.40;99.90;;;;;;5133826;27;20027;-67
2022/01/27 06:40:34;;;;;;;27.25;12.98;;;2.40;99.90;;;;;;5133646;27;20531;-68
2022/01/27 06:43:00;;;;;;;27.70;13.25;;;2.40;99.90;;;;;;5133948;27;20035;-67
2022/01/27 06:45:25;;;;;;;27.50;13.18;;;2.50;99.90;;;;;;5134675;28;20088;-65
2022/01/27 06:47:51;;;;;;;27.35;12.63;;;2.50;99.90;;;;;;5133482;28;20114;-66
2022/01/27 06:50:17;;;;;;;25.63;10.93;;;2.40;99.90;;;;;;5133591;28;20062;-67
2022/01/27 06:52:43;;;;;;;24.38;12.25;;;2.50;99.90;;;;;;5133257;28;20023;-68
2022/01/27 06:55:10;;;;;;;22.75;11.43;;;2.50;99.90;;;;;;5132718;28;20027;-67
2022/01/27 06:57:35;;;;;;;33.33;12.00;;;2.40;99.90;;;;;;5132279;28;20027;-68
2022/01/27 07:00:02;;;;;;;24.95;12.52;;;2.50;99.90;;;;;;5134349;28;20038;-67
2022/01/27 07:02:28;;;;;;;26.98;12.52;;;2.50;99.90;;;;;;5133405;28;20115;-68
2022/01/27 07:04:53;;;;;;;28.85;12.93;;;2.50;99.90;;;;;;5131991;28;20130;-68
2022/01/27 07:07:19;;;;;;;21.27;11.13;;;2.30;99.90;;;;;;5132896;28;20091;-68
2022/01/27 07:09:45;;;;;;;25.05;11.77;;;2.40;99.90;;;;;;5133409;27;20496;-68
2022/01/27 07:12:11;;;;;;;27.27;12.07;;;2.40;99.90;;;;;;5132592;28;20034;-68
2022/01/27 07:14:36;;;;;;;25.00;12.52;;;2.20;99.90;;;;;;5132892;28;20027;-68
2022/01/27 07:17:04;;;;;;;26.02;12.35;;;2.10;99.90;;;;;;5135062;27;20023;-67
2022/01/27 07:19:29;;;;;;;24.63;10.77;;;2.20;99.90;;;;;;5135386;28;20091;-68
2022/01/27 07:21:55;;;;;;;27.73;12.02;;;2.20;99.90;;;;;;5132299;28;20460;-68
2022/01/27 07:24:21;;;;;;;25.25;12.27;;;2.10;99.90;;;;;;5132257;28;20107;-69
2022/01/27 07:26:46;;;;;;;30.13;12.80;;;2.10;99.90;;;;;;5132601;28;20488;-68
2022/01/27 07:29:12;;;;;;;24.77;13.48;;;2.10;99.90;;;;;;5133833;28;20453;-68
2022/01/27 07:31:38;;;;;;;31.98;12.98;;;2.00;99.90;;;;;;5132216;28;20027;-68
2022/01/27 07:34:03;;;;;;;30.60;12.77;;;1.90;99.90;;;;;;5133567;28;20031;-67
2022/01/27 07:36:31;;;;;;;29.08;13.88;;;2.00;99.90;;;;;;5132665;28;20023;-69
2022/01/27 07:38:58;;;;;;;28.67;13.93;;;2.00;99.90;;;;;;5133904;28;20024;-68
2022/01/27 07:41:24;;;;;;;27.00;13.38;;;1.90;99.90;;;;;;5137044;27;20023;-68
2022/01/27 07:43:50;;;;;;;34.05;14.60;;;1.90;99.90;;;;;;5140005;27;20041;-67
2022/01/27 07:46:16;;;;;;;25.30;14.13;;;1.80;99.90;;;;;;5139673;27;20079;-68
2022/01/27 07:48:42;;;;;;;29.70;14.38;;;1.80;99.90;;;;;;5135698;27;20024;-69
2022/01/27 07:51:09;;;;;;;29.25;13.45;;;1.90;99.90;;;;;;5139217;27;20161;-67
2022/01/27 07:53:36;;;;;;;29.50;14.32;;;1.90;99.90;;;;;;5139282;27;20106;-67
2022/01/27 07:56:03;;;;;;;31.08;13.90;;;2.00;99.90;;;;;;5139827;27;20027;-69
2022/01/27 07:58:30;;;;;;;25.55;13.05;;;1.90;99.90;;;;;;5139571;27;20027;-68
2022/01/27 08:00:56;;;;;;;23.55;12.90;;;1.80;99.90;;;;;;5137084;27;20035;-67
2022/01/27 08:03:22;;;;;;;28.90;14.02;;;1.80;99.90;;;;;;5136245;27;20038;-67
2022/01/27 08:05:47;;;;;;;33.55;14.07;;;1.80;99.90;;;;;;5137298;27;20023;-67
2022/01/27 08:08:13;;;;;;;33.88;13.60;;;1.90;99.90;;;;;;5138120;27;20030;-67
2022/01/27 08:10:39;;;;;;;28.75;13.52;;;1.90;99.90;;;;;;5136257;27;20053;-67
2022/01/27 08:13:09;;;;;;;30.85;13.98;;;1.90;99.90;;;;;;5138750;27;20463;-67
2022/01/27 08:15:35;;;;;;;28.83;13.75;;;1.90;99.90;;;;;;5138416;27;20059;-68
2022/01/27 08:18:01;;;;;;;27.08;13.27;;;1.90;99.90;;;;;;5136204;27;20031;-68
2022/01/27 08:20:27;;;;;;;30.98;14.35;;;2.00;99.90;;;;;;5135339;27;20118;-68
2022/01/27 08:22:54;;;;;;;31.55;13.27;;;2.00;99.90;;;;;;5135966;27;20066;-67
2022/01/27 08:25:22;;;;;;;23.60;12.82;;;1.90;99.90;;;;;;5136359;27;20015;-66
2022/01/27 08:27:51;;;;;;;26.75;12.82;;;1.90;99.90;;;;;;5134567;27;20047;-67
2022/01/27 08:30:19;;;;;;;33.92;13.82;;;2.00;99.90;;;;;;5134960;27;20104;-69
2022/01/27 08:32:56;;;;;;;28.73;13.85;;;1.90;99.90;;;;;;5136569;27;20058;-67
2022/01/27 08:35:22;;;;;;;32.70;16.13;;;1.80;99.90;;;;;;5137156;27;20058;-66
2022/01/27 08:37:49;;;;;;;37.08;15.73;;;1.80;99.90;;;;;;5136212;27;20103;-68
2022/01/27 08:40:15;;;;;;;27.80;14.00;;;1.90;99.90;;;;;;5136825;27;20034;-68
2022/01/27 08:42:43;;;;;;;30.70;15.82;;;2.00;99.90;;;;;;5123417;27;20061;-67
2022/01/27 08:45:14;;;;;;;31.33;14.32;;;1.80;99.90;;;;;;5118119;27;20091;-67
2022/01/27 08:47:41;;;;;;;26.85;15.15;;;1.90;99.90;;;;;;5134932;27;20058;-66
2022/01/27 08:50:09;;;;;;;32.08;16.75;;;2.00;99.90;;;;;;5135020;27;20063;-69
2022/01/27 08:52:35;;;;;;;41.50;17.27;;;3.50;99.90;;;;;;5125463;27;20034;-67
2022/01/27 08:55:02;;;;;;;29.98;15.45;;;2.50;99.90;;;;;;5127969;27;20456;-67
2022/01/27 08:57:28;;;;;;;31.23;15.75;;;2.30;99.90;;;;;;5119478;28;20035;-67
2022/01/27 08:59:54;;;;;;;33.75;15.75;;;2.10;99.90;;;;;;5116822;28;20032;-69
2022/01/27 09:02:21;;;;;;;32.17;15.73;;;2.10;99.90;;;;;;5117338;28;20023;-67
2022/01/27 09:04:47;;;;;;;33.97;17.67;;;2.00;99.90;;;;;;5121224;27;20035;-68
2022/01/27 09:07:15;;;;;;;34.17;17.77;;;1.90;99.90;;;;;;5127282;27;20110;-68
2022/01/27 09:09:44;;;;;;;37.15;18.70;;;1.80;99.90;;;;;;5136310;27;20043;-70
2022/01/27 09:12:11;;;;;;;36.22;18.40;;;1.80;99.90;;;;;;5128898;27;20030;-68
2022/01/27 09:14:40;;;;;;;31.92;16.65;;;1.80;99.90;;;;;;5135134;27;20027;-69
2022/01/27 09:17:06;;;;;;;31.10;15.93;;;1.90;99.90;;;;;;5136198;27;20031;-68
2022/01/27 09:19:37;;;;;;;36.05;16.33;;;1.80;99.90;;;;;;5135561;27;20043;-68
2022/01/27 09:22:07;;;;;;;36.08;17.02;;;1.80;99.90;;;;;;5135318;27;20096;-68
2022/01/27 09:24:39;;;;;;;33.17;17.48;;;1.70;99.90;;;;;;5129468;27;20065;-68
2022/01/27 09:27:06;;;;;;;;;;;1.80;99.90;;;;;;5118786;27;20043;-67
2022/01/27 09:29:31;;;;;;;30.58;15.30;;;1.70;99.90;;;;;;5120080;27;19930;-68
2022/01/27 09:32:01;;;;;;;39.78;18.65;;;1.70;99.90;;;;;;5130377;27;20472;-68
2022/01/27 09:34:27;;;;;;;32.97;14.95;;;1.80;99.90;;;;;;5137568;27;20432;-70
2022/01/27 09:36:54;;;;;;;33.28;16.63;;;1.80;99.90;;;;;;5126439;27;20053;-69
2022/01/27 09:39:21;;;;;;;32.45;18.40;;;1.80;99.90;;;;;;5123342;27;20043;-68
2022/01/27 09:41:52;;;;;;;36.58;17.98;;;1.70;99.90;;;;;;5137253;27;20027;-68
2022/01/27 09:44:20;;;;;;;43.45;18.33;;;1.70;99.90;;;;;;5138794;27;20032;-68
2022/01/27 09:46:46;;;;;;;38.15;16.50;;;1.70;99.90;;;;;;5138968;27;20071;-69
2022/01/27 09:49:19;;;;;;;41.35;16.75;;;1.80;99.90;;;;;;5136272;27;20166;-68
2022/01/27 09:51:46;;;;;;;35.92;17.35;;;1.80;99.90;;;;;;5115727;27;20365;-68
2022/01/27 09:54:14;;;;;;;30.77;16.08;;;1.70;99.90;;;;;;5115046;28;20027;-68
2022/01/27 09:56:40;;;;;;;28.70;14.15;;;1.80;99.90;;;;;;5114859;28;20030;-68
2022/01/27 09:59:08;;;;;;;29.27;14.63;;;1.60;99.90;;;;;;5115015;28;20034;-68
2022/01/27 10:01:35;;;;;;;32.83;15.82;;;1.80;99.90;;;;;;5113775;28;20024;-67
2022/01/27 10:04:09;;;;;;;28.60;15.55;;;1.80;99.90;;;;;;5115437;27;20350;-67
2022/01/27 10:06:35;;;;;;;29.67;14.90;;;1.90;99.90;;;;;;5114802;27;20100;-67
2022/01/27 10:09:17;;;;;;;24.83;14.18;;;1.80;99.90;;;;;;5115093;27;20666;-68
2022/01/27 10:11:49;;;;;;;29.88;14.85;;;1.80;99.90;;;;;;5126901;27;20055;-69
2022/01/27 10:14:24;;;;;;;28.50;13.80;;;1.80;99.90;;;;;;5117815;27;20118;-68
2022/01/27 10:16:55;;;;;;;30.67;15.35;;;1.80;99.90;;;;;;5134517;27;20023;-68
2022/01/27 10:19:22;;;;;;;27.35;15.23;;;1.80;99.90;;;;;;5130107;27;20115;-67
2022/01/27 10:21:49;;;;;;;30.60;14.90;;;1.90;99.90;;;;;;5113870;28;20059;-68
2022/01/27 10:24:27;;;;;;;31.60;14.90;;;1.80;99.90;;;;;;5120602;27;20040;-67
2022/01/27 10:32:56;;;;;;;26.05;13.45;;;1.90;99.90;;;;;;5119830;28;20059;-69
2022/01/27 10:35:27;;;;;;;30.08;14.02;;;1.80;99.90;;;;;;5121591;27;20031;-70
2022/01/27 10:38:04;;;;;;;29.55;13.43;;;1.90;99.90;;;;;;5117980;27;20035;-67
2022/01/27 10:40:38;;;;;;;31.55;14.93;;;1.90;99.90;;;;;;5121693;28;20027;-68
2022/01/27 10:43:16;;;;;;;31.90;15.27;;;1.90;99.90;;;;;;5132825;27;20062;-67
2022/01/27 10:46:07;;;;;;;34.75;14.70;;;2.00;99.90;;;;;;5132986;27;20079;-67
2022/01/27 10:48:35;;;;;;;23.33;12.75;;;2.10;99.90;;;;;;5136853;27;20499;-68
2022/01/27 10:51:05;;;;;;;29.05;14.38;;;2.00;99.90;;;;;;5139527;28;20491;-68
2022/01/27 10:56:28;;;;;;;30.13;13.10;;;1.90;99.90;;;;;;5114637;28;20373;-68
2022/01/27 10:58:56;;;;;;;27.52;13.45;;;1.80;99.90;;;;;;5111833;28;20084;-67
2022/01/27 11:01:27;;;;;;;30.45;15.25;;;1.90;99.90;;;;;;5097424;28;20023;-69
2022/01/27 11:03:55;;;;;;;24.95;12.65;;;2.00;99.90;;;;;;5114207;28;20042;-68
2022/01/27 11:06:24;;;;;;;28.10;13.75;;;2.10;99.90;;;;;;5124068;28;20035;-68
2022/01/27 11:08:54;;;;;;;26.30;13.82;;;2.10;99.90;;;;;;5122994;27;20019;-70
2022/01/27 11:11:25;;;;;;;24.42;12.70;;;2.20;99.90;;;;;;5125352;28;20023;-71
2022/01/27 11:13:53;;;;;;;26.33;12.50;;;2.30;99.90;;;;;;5123046;28;20453;-71
2022/01/27 11:16:24;;;;;;;25.95;13.77;;;2.20;99.90;;;;;;5128395;27;20084;-67
2022/01/27 11:18:50;;;;;;;25.27;13.68;;;2.20;99.90;;;;;;5133750;27;20111;-68
2022/01/27 11:21:32;;;;;;;27.35;13.20;;;2.20;99.90;;;;;;5117179;27;20089;-68
2022/01/27 11:24:15;;;;;;;29.30;14.30;;;2.20;99.90;;;;;;5126711;27;20567;-68
2022/01/27 11:26:43;;;;;;;25.05;12.23;;;2.40;99.90;;;;;;5130889;27;20088;-68
2022/01/27 11:29:10;;;;;;;27.05;12.50;;;2.30;99.90;;;;;;5130054;27;20738;-69
2022/01/27 11:32:14;;;;;;;25.83;12.95;;;2.30;99.90;;;;;;5132743;27;20084;-69
2022/01/27 11:35:35;;;;;;;25.38;11.77;;;2.40;99.90;;;;;;5131271;27;20054;-66
2022/01/27 11:38:04;;;;;;;30.17;13.20;;;2.30;99.90;;;;;;5119201;27;20039;-68
2022/01/27 11:40:41;;;;;;;23.42;11.95;;;2.30;99.90;;;;;;5134036;27;20095;-67
2022/01/27 11:43:12;;;;;;;26.65;12.57;;;2.30;99.90;;;;;;5131705;27;20558;-67
2022/01/27 11:45:47;;;;;;;28.40;11.93;;;2.40;99.90;;;;;;5132465;27;20204;-70
2022/01/27 11:48:17;;;;;;;26.35;12.63;;;2.50;99.90;;;;;;5133552;27;20122;-70
2022/01/27 11:50:51;;;;;;;25.42;12.65;;;2.40;99.90;;;;;;5131680;27;20030;-69
2022/01/27 11:53:46;;;;;;;25.60;12.30;;;2.40;99.90;;;;;;5130980;27;20130;-68
2022/01/27 11:56:23;;;;;;;27.45;12.05;;;2.40;99.90;;;;;;5130667;27;20015;-69
2022/01/27 11:59:06;;;;;;;26.40;11.82;;;2.50;99.90;;;;;;5131258;27;20027;-69
2022/01/27 12:01:36;;;;;;;24.70;11.40;;;2.40;99.90;;;;;;5113532;27;20495;-68
2022/01/27 12:04:07;;;;;;;30.95;13.57;;;2.40;99.90;;;;;;5128973;27;20054;-68
2022/01/27 12:06:41;;;;;;;24.83;12.20;;;2.30;99.90;;;;;;5111860;28;20030;-69
2022/01/27 12:09:19;;;;;;;26.75;13.00;;;2.30;99.90;;;;;;5111106;28;20036;-70
2022/01/27 12:11:59;;;;;;;26.63;11.77;;;2.30;99.90;;;;;;5112179;28;20023;-70
2022/01/27 12:14:29;;;;;;;31.70;12.75;;;2.30;99.90;;;;;;5110970;28;20070;-70
2022/01/27 12:17:10;;;;;;;19.65;10.82;;;2.30;99.90;;;;;;5110535;28;20039;-69
2022/01/27 12:20:08;;;;;;;23.37;11.40;;;2.40;99.90;;;;;;5123203;27;20045;-70
2022/01/27 12:22:43;;;;;;;26.42;12.00;;;2.40;99.90;;;;;;5131918;27;20035;-68
2022/01/27 12:25:10;;;;;;;22.02;11.60;;;2.30;99.90;;;;;;5132384;27;20418;-67
2022/01/27 12:27:36;;;;;;;25.27;12.32;;;2.30;99.90;;;;;;5133911;27;20050;-68
2022/01/27 12:30:06;;;;;;;34.72;12.05;;;2.30;99.90;;;;;;5119615;27;20028;-67
2022/01/27 12:32:32;;;;;;;28.35;13.27;;;2.20;99.90;;;;;;5111224;28;20024;-69
2022/01/27 12:35:00;;;;;;;23.98;12.10;;;2.10;99.90;;;;;;5112896;28;20023;-68
2022/01/27 12:37:34;;;;;;;24.05;11.93;;;2.20;99.90;;;;;;5114177;27;20024;-69
2022/01/27 12:40:06;;;;;;;27.50;13.07;;;2.30;99.90;;;;;;5122586;27;20079;-69
2022/01/27 12:42:36;;;;;;;27.38;12.43;;;2.30;99.90;;;;;;5118447;27;20043;-78
2022/01/27 12:45:07;;;;;;;24.80;11.82;;;2.30;99.90;;;;;;5119728;27;20031;-76
2022/01/27 12:47:37;;;;;;;28.83;14.00;;;2.20;99.90;;;;;;5114353;27;20384;-68
2022/01/27 12:50:12;;;;;;;26.17;13.68;;;2.30;99.90;;;;;;5123442;27;20062;-69
2022/01/27 12:52:43;;;;;;;30.67;12.43;;;2.30;99.90;;;;;;5125261;27;20452;-68
2022/01/27 12:55:14;;;;;;;22.30;12.05;;;2.30;99.90;;;;;;5128419;27;20050;-69
2022/01/27 12:57:40;;;;;;;24.38;12.75;;;2.40;99.90;;;;;;5134161;27;20022;-67
2022/01/27 13:00:10;;;;;;;23.35;12.48;;;2.30;99.90;;;;;;5113434;27;20036;-68
2022/01/27 13:02:37;;;;;;;25.50;12.90;;;2.30;99.90;;;;;;5112045;27;20027;-70
2022/01/27 13:05:04;;;;;;;23.90;11.75;;;2.40;99.90;;;;;;5118213;27;20150;-69
2022/01/27 13:07:30;;;;;;;23.77;12.73;;;2.60;99.90;;;;;;5126848;27;20019;-70
2022/01/27 13:10:18;;;;;;;24.17;12.05;;;2.70;99.90;;;;;;5131707;27;20067;-69
2022/01/27 13:12:51;;;;;;;23.45;12.90;;;2.60;99.90;;;;;;5131649;27;20046;-69
2022/01/27 13:15:21;;;;;;;26.27;12.75;;;2.60;99.90;;;;;;5115725;27;20027;-69
2022/01/27 13:17:57;;;;;;;23.17;13.07;;;3.40;99.90;;;;;;5115478;27;20039;-70
2022/01/27 13:20:39;;;;;;;23.10;12.00;;;3.00;99.90;;;;;;5128162;27;20019;-69
2022/01/27 13:23:23;;;;;;;22.20;12.07;;;3.00;99.90;;;;;;5132345;27;20134;-69
2022/01/27 13:25:54;;;;;;;23.65;12.57;;;2.90;99.90;;;;;;5119096;27;20059;-69
2022/01/27 13:28:26;;;;;;;24.27;12.20;;;2.80;99.90;;;;;;5129220;27;20034;-70
2022/01/27 13:30:54;;;;;;;23.15;12.10;;;2.80;99.90;;;;;;5120599;27;20034;-69
2022/01/27 13:33:22;;;;;;;28.67;13.95;;;2.70;99.90;;;;;;5114496;27;20028;-69
2022/01/27 13:35:50;;;;;;;27.10;13.90;;;2.70;99.90;;;;;;5110652;28;20115;-69
2022/01/27 13:38:27;;;;;;;23.90;12.63;;;2.70;99.90;;;;;;5109504;27;20027;-68